Detall de PIREP

Printer-friendly versionPDF version

[2013/09/22 06:53:00]
Flight IATA:CT3301
Pilot Number:012
Company ICAO:CAT
Aircraft Type:B738/F
PAX:160
Departing Airport: DAAG
Destination Airport: LEZG
Alternate Airport:LEMD
Online: VATSIM
Route:SADAF UN861 ADX UN863 ARBEK UN725 LOBAR
Flight Level:F380
No Slew and time accel
No pause
Crash detect
Detect pilot in Cockpit between each 30 and 45 minutes
06:53 Zero fuel Weight: 122597 Lbs, Fuel Weight: 12943 Lbs
06:53 VATSIM:DAAG 220630Z 00000KT CAVOK 16/15 Q1022
06:53 VATSIM:LEZG 220630Z 00000KT CAVOK 12/08 Q1025
06:53 VOICE CATALONIAN
07:00 Parking Brakes off
07:07 Take-off
07:07 Take off Weight: 134662 Lbs
07:07 Wind: 000º @ 000 Knots Heading: 090º
07:07 POS N36º 41´ 29´´ E003º 11´ 30´´
07:07 Gear Up: 164 Knots
07:07 Flaps:3 at 164 Knots
07:07 Flaps:1 at 201 Knots
07:07 Flaps:0 at 202 Knots
07:22 Wind:082º@044 Knots Heading: 015º Ground Speed: 453 Knots Altitude 33228 ft
07:25 TOC
07:25 Fuel Weight: 8424 Lb
07:37 Wind:074º@054 Knots Heading: 319º Ground Speed: 488 Knots Altitude 38287 ft
07:51 TOD
07:51 Fuel Weight: 6240 Lb
07:52 Wind:075º@056 Knots Heading: 002º Ground Speed: 429 Knots Altitude 36528 ft
08:07 Wind:144º@006 Knots Heading: 218º Ground Speed: 260 Knots Altitude 6499 ft
08:07 Flaps:1 at 236 Knots
08:07 Flaps:2 at 214 Knots
08:07 Flaps:3 at 211 Knots
08:09 Flaps:4 at 168 Knots
08:09 Flaps:5 at 159 Knots
08:10 Flaps:6 at 149 Knots
08:10 Gear Down: 148 Knots
08:11 Flaps:7 at 139 Knots
08:14 TouchDown:Rate -137 ft/min Speed: 130 Knots
08:15 VATSIM:LEZG 220800Z 33003KT 300V010 CAVOK 16/08 Q1025
08:15 Land
08:15 Wind:000º@000 Knots
08:15 Heading: 301º
08:15 Flight Duration: 01:08
08:15 Landing Weight: 127643 Lbs
08:15 POS N41º 39´ 43´´ W001º 01´ 24´´
08:18 Parking brakes on
08:18 Block to Block Duration: 01:18
08:18 Final Fuel: 4828 Lbls
08:18 Spent Fuel: 8115 Lbls
08:18 Flight Length: 443 NM
08:18 TOD Land Length: 122 NM

Exportar CSV

Powered by Drupal - Modified by Danger4k